Time;durP1;ratioP1;P1;durP2;ratioP2;P2;SDS_P1;SDS_P2;PMS_P1;PMS_P2;Temp;Humidity;BMP_temperature;BMP_pressure;BME280_temperature;BME280_humidity;BME280_pressure;Samples;Min_cycle;Max_cycle;Signal;HPM_P1;HPM_P2
2021/05/11 00:01:53;;;;;;;4.40;2.50;;;13.00;99.90;;;;;;5101043;28;20443;-59
2021/05/11 00:04:19;;;;;;;;;;;13.00;99.90;;;;;;5102246;28;20031;-60
2021/05/11 00:06:44;;;;;;;5.22;2.30;;;13.00;99.90;;;;;;5101978;28;20010;-58
2021/05/11 00:09:10;;;;;;;;;;;13.00;99.90;;;;;;5102450;28;20036;-59
2021/05/11 00:11:36;;;;;;;5.65;2.85;;;12.90;99.90;;;;;;5102058;28;20364;-60
2021/05/11 00:14:03;;;;;;;;;;;13.00;99.90;;;;;;5101895;28;20411;-60
2021/05/11 00:16:29;;;;;;;;;;;12.90;99.90;;;;;;5101556;28;19916;-59
2021/05/11 00:18:54;;;;;;;5.90;2.60;;;12.90;99.90;;;;;;5088134;28;19919;-59
2021/05/11 00:21:20;;;;;;;;;;;12.90;99.90;;;;;;5089319;28;20076;-60
2021/05/11 00:23:45;;;;;;;4.97;2.22;;;12.80;99.90;;;;;;5087856;28;19923;-60
2021/05/11 00:26:11;;;;;;;;;;;12.80;99.90;;;;;;5087333;28;20047;-58
2021/05/11 00:28:36;;;;;;;3.20;2.90;;;12.80;99.90;;;;;;5084786;28;19920;-59
2021/05/11 00:31:02;;;;;;;;;;;12.80;99.90;;;;;;5078815;28;20827;-60
2021/05/11 00:33:27;;;;;;;4.20;2.53;;;12.80;99.90;;;;;;5066551;28;19920;-58
2021/05/11 00:35:53;;;;;;;;;;;12.80;99.90;;;;;;5067215;28;20082;-60
2021/05/11 00:38:18;;;;;;;4.07;3.10;;;12.80;99.90;;;;;;5067590;28;19917;-56
2021/05/11 00:40:44;;;;;;;;;;;12.80;99.90;;;;;;5068808;28;20631;-59
2021/05/11 00:43:09;;;;;;;4.07;3.08;;;12.80;99.90;;;;;;5067117;28;19917;-60
2021/05/11 00:45:35;;;;;;;;;;;12.80;99.90;;;;;;5066642;28;20127;-60
2021/05/11 00:48:00;;;;;;;3.08;2.45;;;12.70;99.90;;;;;;5067324;28;19952;-55
2021/05/11 00:50:26;;;;;;;;;;;12.70;99.90;;;;;;5066317;28;20945;-59
2021/05/11 00:52:52;;;;;;;4.43;2.75;;;12.80;99.90;;;;;;5047497;28;19956;-58
2021/05/11 00:55:18;;;;;;;;;;;12.90;99.90;;;;;;5047794;28;20623;-57
2021/05/11 00:57:44;;;;;;;4.70;2.30;;;12.90;99.90;;;;;;5048885;28;20016;-59
2021/05/11 01:00:11;;;;;;;5.05;3.13;;;12.80;99.90;;;;;;5047792;28;20037;-60
2021/05/11 01:02:37;;;;;;;5.15;3.15;;;12.80;99.90;;;;;;5047088;28;20071;-60
2021/05/11 01:05:05;;;;;;;3.55;3.05;;;12.80;99.90;;;;;;5051402;28;20055;-59
2021/05/11 01:07:31;;;;;;;4.53;3.53;;;12.70;99.90;;;;;;5055492;28;20048;-58
2021/05/11 01:09:58;;;;;;;;;;;12.70;99.90;;;;;;5047285;28;20041;-59
2021/05/11 01:12:24;;;;;;;6.25;3.65;;;12.70;99.90;;;;;;5047763;28;19916;-59
2021/05/11 01:14:50;;;;;;;;;;;12.60;99.90;;;;;;5056128;28;20049;-59
2021/05/11 01:17:21;;;;;;;3.40;2.83;;;12.70;99.90;;;;;;5060458;28;20538;-59
2021/05/11 01:19:49;;;;;;;6.80;3.30;;;12.70;99.90;;;;;;5066983;28;20044;-60
2021/05/11 01:25:22;;;;;;;4.35;3.20;;;12.80;99.90;;;;;;5065993;28;20029;-59
2021/05/11 01:28:07;;;;;;;3.97;2.90;;;12.80;99.90;;;;;;5064889;28;20067;-60
2021/05/11 01:44:52;;;;;;;6.43;2.40;;;12.70;99.90;;;;;;5066514;28;20052;-58
2021/05/11 01:47:22;;;;;;;3.60;2.72;;;12.70;99.90;;;;;;5066232;28;20041;-59
2021/05/11 01:50:07;;;;;;;5.57;3.00;;;12.60;99.90;;;;;;5065970;28;20044;-58
2021/05/11 01:52:52;;;;;;;4.70;2.70;;;12.50;99.90;;;;;;5066610;28;20044;-59
2021/05/11 01:55:27;;;;;;;5.57;2.90;;;12.50;99.90;;;;;;5065551;28;20044;-60
2021/05/11 02:25:20;;;;;;;2.83;1.85;;;12.50;99.90;;;;;;4983042;28;20125;-58
2021/05/11 02:27:46;;;;;;;2.53;1.90;;;12.50;99.90;;;;;;5034134;28;20548;-58
2021/05/11 02:30:12;;;;;;;;;;;12.50;99.90;;;;;;5065382;28;20047;-59
2021/05/11 02:32:42;;;;;;;1.88;1.02;;;12.50;99.90;;;;;;5085528;28;19920;-57
2021/05/11 02:35:09;;;;;;;3.60;1.30;;;12.50;99.90;;;;;;5085765;28;20519;-58
2021/05/11 02:37:34;;;;;;;2.72;1.70;;;12.50;99.90;;;;;;5086125;28;20101;-59
2021/05/11 02:40:00;;;;;;;;;;;12.50;99.90;;;;;;5085651;28;20048;-59
2021/05/11 02:42:26;;;;;;;3.33;1.52;;;12.50;99.90;;;;;;5077755;28;19926;-60
2021/05/11 02:44:53;;;;;;;1.95;1.40;;;12.50;99.90;;;;;;5072588;28;20675;-59
2021/05/11 02:47:19;;;;;;;3.70;1.60;;;12.50;99.90;;;;;;5064183;28;20044;-59
2021/05/11 02:49:45;;;;;;;;;;;12.50;99.90;;;;;;5065421;28;20036;-59
2021/05/11 02:52:12;;;;;;;2.55;1.88;;;12.50;99.90;;;;;;5080970;28;20547;-58
2021/05/11 02:54:38;;;;;;;3.05;1.90;;;12.50;99.90;;;;;;5085801;28;20036;-58
2021/05/11 02:57:05;;;;;;;2.28;2.08;;;12.40;99.90;;;;;;5081263;28;20032;-59
2021/05/11 02:59:30;;;;;;;2.22;1.45;;;12.40;99.90;;;;;;5076608;28;20072;-57
2021/05/11 03:01:56;;;;;;;;;;;12.40;99.90;;;;;;5066325;28;20068;-58
2021/05/11 03:04:21;;;;;;;3.13;1.90;;;12.40;99.90;;;;;;5065065;28;19916;-60
2021/05/11 03:06:47;;;;;;;;;;;12.40;99.90;;;;;;5067540;28;20492;-59
2021/05/11 03:09:13;;;;;;;4.55;1.70;;;12.40;99.90;;;;;;5073749;28;20368;-59
2021/05/11 03:11:38;;;;;;;;;;;12.40;99.90;;;;;;5066531;28;20219;-59
2021/05/11 03:14:04;;;;;;;2.00;1.80;;;12.40;99.90;;;;;;5063914;28;20792;-59
2021/05/11 03:16:31;;;;;;;;;;;12.40;99.90;;;;;;5064250;28;20124;-58
2021/05/11 03:18:57;;;;;;;3.53;1.90;;;12.40;99.90;;;;;;5065356;28;20025;-59
2021/05/11 03:21:22;;;;;;;;;;;12.40;99.90;;;;;;5065165;28;20520;-60
2021/05/11 03:23:47;;;;;;;5.40;1.88;;;12.40;99.90;;;;;;5075416;28;19942;-58
2021/05/11 03:26:13;;;;;;;;;;;12.40;99.90;;;;;;5080586;28;20175;-59
2021/05/11 03:28:39;;;;;;;1.67;0.98;;;12.40;99.90;;;;;;5073460;28;19916;-59
2021/05/11 03:31:04;;;;;;;;;;;12.30;99.90;;;;;;5085340;28;20147;-59
2021/05/11 03:33:30;;;;;;;3.53;0.77;;;12.30;99.90;;;;;;5085450;28;19923;-59
2021/05/11 03:35:55;;;;;;;;;;;12.20;99.90;;;;;;5085009;28;20200;-59
2021/05/11 03:38:21;;;;;;;0.80;0.60;;;12.20;99.90;;;;;;5084602;28;20440;-59
2021/05/11 03:40:46;;;;;;;;;;;12.20;99.90;;;;;;5084777;28;20534;-57
2021/05/11 03:43:20;;;;;;;1.00;0.60;;;12.10;99.90;;;;;;5071143;28;19916;-58
2021/05/11 03:45:55;;;;;;;3.97;0.90;;;12.20;99.90;;;;;;5064034;28;20040;-59
2021/05/11 03:48:21;;;;;;;2.08;0.70;;;12.20;99.90;;;;;;5071130;28;20063;-59
2021/05/11 03:50:46;;;;;;;;;;;12.10;99.90;;;;;;5075212;28;20396;-58
2021/05/11 03:53:12;;;;;;;1.63;0.52;;;12.20;99.90;;;;;;5074713;28;19916;-56
2021/05/11 03:55:37;;;;;;;;;;;12.20;99.90;;;;;;5077297;28;20032;-58
2021/05/11 03:58:03;;;;;;;2.80;0.60;;;12.20;99.90;;;;;;5080953;28;19915;-59
2021/05/11 04:00:28;;;;;;;;;;;12.10;99.90;;;;;;5073249;28;20048;-61
2021/05/11 04:02:54;;;;;;;0.85;0.80;;;12.10;99.90;;;;;;5068888;28;19920;-59
2021/05/11 04:05:20;;;;;;;;;;;12.10;99.90;;;;;;5068696;28;20032;-57
2021/05/11 04:07:49;;;;;;;4.15;0.70;;;12.10;99.90;;;;;;5067698;28;19999;-61
2021/05/11 04:10:41;;;;;;;1.20;0.50;;;12.10;99.90;;;;;;5068290;28;20123;-56
2021/05/11 04:13:18;;;;;;;1.02;0.60;;;12.20;99.90;;;;;;5067695;28;20079;-53
2021/05/11 04:18:28;;;;;;;3.92;0.60;;;12.20;99.90;;;;;;5067817;28;20040;-58
2021/05/11 04:20:54;;;;;;;;;;;12.20;99.90;;;;;;5068610;28;20043;-57
2021/05/11 04:23:19;;;;;;;1.45;0.80;;;12.20;99.90;;;;;;5068041;28;19943;-54
2021/05/11 04:25:46;;;;;;;;;;;12.10;99.90;;;;;;5068738;28;20112;-56
2021/05/11 04:28:11;;;;;;;1.92;0.60;;;12.00;99.90;;;;;;5081725;28;20002;-59
2021/05/11 04:30:37;;;;;;;;;;;12.00;99.90;;;;;;5071309;28;20170;-57
2021/05/11 04:33:02;;;;;;;0.77;0.60;;;12.00;99.90;;;;;;5068465;28;19960;-58
2021/05/11 04:35:28;;;;;;;;;;;12.10;99.90;;;;;;5067566;28;20041;-58
2021/05/11 04:37:53;;;;;;;0.95;0.75;;;12.00;99.90;;;;;;5067382;28;19916;-58
2021/05/11 04:40:19;;;;;;;;;;;12.10;99.90;;;;;;5068071;28;20780;-59
2021/05/11 04:42:45;;;;;;;1.00;0.60;;;12.10;99.90;;;;;;5067682;28;20017;-59
2021/05/11 04:45:11;;;;;;;;;;;12.10;99.90;;;;;;5070880;28;20119;-59
2021/05/11 04:47:50;;;;;;;2.97;2.25;;;12.10;99.90;;;;;;5078158;28;20600;-59
2021/05/11 04:50:18;;;;;;;17.58;12.52;;;12.30;99.90;;;;;;5075796;28;20040;-57
2021/05/11 04:52:44;;;;;;;16.75;10.38;;;12.30;99.90;;;;;;5067207;28;20508;-58
2021/05/11 04:55:11;;;;;;;;;;;12.30;99.90;;;;;;5066702;28;20040;-59
2021/05/11 04:57:36;;;;;;;4.25;2.65;;;12.40;99.90;;;;;;5069380;28;19923;-58
2021/05/11 05:00:04;;;;;;;;;;;12.30;99.90;;;;;;5080117;28;20040;-59
2021/05/11 05:02:30;;;;;;;;;;;12.30;99.90;;;;;;5067068;28;20343;-58
2021/05/11 05:04:55;;;;;;;1.42;1.08;;;12.20;99.90;;;;;;5065905;28;19921;-57
2021/05/11 05:07:21;;;;;;;;;;;12.20;99.90;;;;;;5067215;28;20412;-58
2021/05/11 05:09:46;;;;;;;3.15;0.63;;;12.20;99.90;;;;;;5066287;28;19926;-57
2021/05/11 05:12:12;;;;;;;;;;;12.30;99.90;;;;;;5067258;28;20055;-59
2021/05/11 05:14:37;;;;;;;3.70;0.75;;;12.30;99.90;;;;;;5067067;28;19951;-59
2021/05/11 05:17:03;;;;;;;;;;;12.30;99.90;;;;;;5067186;28;20629;-59
2021/05/11 05:19:28;;;;;;;2.15;0.95;;;12.30;99.90;;;;;;5067210;28;19920;-60
2021/05/11 05:21:54;;;;;;;;;;;12.30;99.90;;;;;;5068250;28;20046;-59
2021/05/11 05:24:25;;;;;;;1.38;1.00;;;12.20;99.90;;;;;;5067012;28;19988;-58
2021/05/11 05:26:52;;;;;;;2.92;0.90;;;12.30;99.90;;;;;;5067177;28;20040;-59
2021/05/11 05:29:18;;;;;;;1.73;1.20;;;12.30;99.90;;;;;;5075008;28;20047;-58
2021/05/11 05:31:43;;;;;;;;;;;12.40;99.90;;;;;;5101422;28;20039;-59
2021/05/11 05:34:09;;;;;;;1.15;0.80;;;12.50;99.90;;;;;;5081212;28;19973;-58
2021/05/11 05:36:35;;;;;;;;;;;12.60;99.90;;;;;;5090595;28;20072;-58
2021/05/11 05:39:00;;;;;;;1.48;1.20;;;12.60;99.90;;;;;;5094150;28;19919;-59
2021/05/11 05:41:26;;;;;;;;;;;12.70;99.90;;;;;;5087456;28;20900;-59
2021/05/11 05:43:52;;;;;;;1.70;1.00;;;12.80;99.90;;;;;;5067489;28;19946;-58
2021/05/11 05:46:17;;;;;;;;;;;12.80;99.90;;;;;;5066122;28;20087;-59
2021/05/11 05:48:45;;;;;;;1.88;1.08;;;12.80;99.90;;;;;;5066602;28;19917;-59
2021/05/11 05:51:11;;;;;;;1.58;1.10;;;12.90;99.90;;;;;;5066964;28;20484;-57
2021/05/11 05:53:42;;;;;;;1.35;1.25;;;13.00;99.90;;;;;;5067975;28;20135;-58
2021/05/11 05:56:09;;;;;;;1.33;0.85;;;13.00;99.90;;;;;;5068950;28;20032;-59
2021/05/11 05:58:35;;;;;;;1.55;0.90;;;13.00;99.90;;;;;;5073911;28;20639;-58
2021/05/11 06:01:04;;;;;;;;;;;12.90;99.90;;;;;;5064803;28;20127;-58
2021/05/11 06:06:10;;;;;;;1.73;1.50;;;12.90;99.90;;;;;;5072720;28;20380;-58
2021/05/11 06:08:40;;;;;;;1.92;0.98;;;13.00;99.90;;;;;;5065532;28;20033;-59
2021/05/11 06:11:14;;;;;;;2.05;1.20;;;13.10;99.90;;;;;;5065153;28;20664;-58
2021/05/11 06:19:08;;;;;;;2.05;1.20;;;13.40;99.90;;;;;;5065380;28;20040;-59
2021/05/11 06:21:34;;;;;;;;;;;13.50;99.90;;;;;;5065757;28;20048;-59
2021/05/11 06:24:00;;;;;;;0.98;0.82;;;13.50;99.90;;;;;;5065056;28;19916;-59
2021/05/11 06:26:25;;;;;;;;;;;13.50;99.90;;;;;;5065900;28;20084;-59
2021/05/11 06:28:53;;;;;;;4.57;1.40;;;13.50;99.90;;;;;;5075972;28;19920;-62
2021/05/11 06:31:18;;;;;;;2.10;1.73;;;13.40;99.90;;;;;;5084775;28;20062;-58
2021/05/11 06:33:44;;;;;;;;;;;13.30;99.90;;;;;;5086244;28;20510;-59
2021/05/11 06:36:10;;;;;;;3.03;2.00;;;13.10;99.90;;;;;;5084469;28;19924;-57
2021/05/11 06:38:35;;;;;;;2.00;1.80;;;13.10;99.90;;;;;;5085483;28;20051;-58
2021/05/11 06:41:01;;;;;;;;;;;13.20;99.90;;;;;;5085999;28;20656;-57
2021/05/11 06:43:30;;;;;;;3.88;2.53;;;13.10;99.90;;;;;;5069029;28;20007;-53
2021/05/11 06:48:50;;;;;;;2.85;2.45;;;13.40;99.90;;;;;;5063597;28;20746;-59
2021/05/11 06:53:52;;;;;;;10.38;3.33;;;13.60;99.90;;;;;;5064555;28;20123;-59
2021/05/11 06:56:19;;;;;;;;;;;13.60;99.90;;;;;;5072707;28;20036;-58
2021/05/11 06:58:45;;;;;;;3.45;3.00;;;13.50;99.90;;;;;;5082126;28;19923;-59
2021/05/11 07:01:10;;;;;;;;;;;13.60;99.90;;;;;;5063974;28;20539;-58
2021/05/11 07:03:36;;;;;;;8.32;2.85;;;13.60;99.90;;;;;;5063896;28;20336;-58
2021/05/11 07:06:01;;;;;;;;;;;13.60;99.90;;;;;;5065241;28;20048;-58
2021/05/11 07:11:08;;;;;;;3.22;2.00;;;13.60;99.90;;;;;;5065539;28;20683;-59
2021/05/11 07:13:33;;;;;;;2.88;2.40;;;13.60;99.90;;;;;;5065482;28;20048;-58
2021/05/11 07:15:59;;;;;;;;;;;13.50;99.90;;;;;;5065143;28;20045;-58
2021/05/11 07:18:24;;;;;;;2.33;1.95;;;13.50;99.90;;;;;;5064511;28;19923;-57
2021/05/11 07:20:56;;;;;;;;;;;13.50;99.90;;;;;;5065949;28;20044;-58
2021/05/11 07:23:22;;;;;;;3.35;2.28;;;13.50;99.90;;;;;;5065501;28;19924;-57
2021/05/11 07:31:01;;;;;;;3.20;2.30;;;13.40;99.90;;;;;;5097339;27;20526;-54
2021/05/11 07:33:31;;;;;;;2.42;2.13;;;13.40;99.90;;;;;;5089266;28;20039;-57
2021/05/11 07:35:57;;;;;;;3.97;2.83;;;13.50;99.90;;;;;;5082865;28;20604;-53
2021/05/11 07:38:26;;;;;;;;;;;13.40;99.90;;;;;;5087640;28;20043;-56
2021/05/11 07:40:52;;;;;;;2.95;2.55;;;13.40;99.90;;;;;;5100669;28;20011;-56
2021/05/11 07:43:20;;;;;;;4.88;3.80;;;13.40;99.90;;;;;;5108571;28;20039;-57
2021/05/11 07:48:34;;;;;;;5.47;4.00;;;13.60;99.90;;;;;;5086751;28;20039;-58
2021/05/11 08:04:44;;;;;;;6.40;4.25;;;13.40;99.90;;;;;;5088408;28;20048;-59
2021/05/11 08:10:01;;;;;;;;;;;13.40;99.90;;;;;;5089034;28;20033;-56
2021/05/11 08:15:21;;;;;;;9.02;4.63;;;13.40;99.90;;;;;;5087125;28;20040;-57
2021/05/11 08:17:54;;;;;;;5.47;4.57;;;13.30;99.90;;;;;;5088767;28;20040;-59
2021/05/11 08:28:24;;;;;;;10.38;7.55;;;13.10;99.90;;;;;;5076844;28;20039;-57
2021/05/11 08:30:50;;;;;;;;;;;13.10;99.90;;;;;;5074487;28;20044;-57
2021/05/11 08:33:15;;;;;;;6.53;5.25;;;13.00;99.90;;;;;;5089116;28;19916;-58
2021/05/11 08:35:41;;;;;;;;;;;12.90;99.90;;;;;;5087273;28;20376;-57
2021/05/11 08:38:06;;;;;;;6.55;5.38;;;13.00;99.90;;;;;;5092476;28;19920;-58
2021/05/11 08:40:33;;;;;;;;;;;12.90;99.90;;;;;;5088573;28;20032;-58
2021/05/11 08:43:02;;;;;;;5.72;4.80;;;12.80;99.90;;;;;;5073066;28;20556;-59
2021/05/11 08:45:30;;;;;;;9.00;5.18;;;12.90;99.90;;;;;;5080246;28;20067;-58
2021/05/11 08:47:55;;;;;;;8.63;5.65;;;12.90;99.90;;;;;;5079087;28;20051;-58
2021/05/11 08:50:31;;;;;;;;;;;12.90;99.90;;;;;;5086450;28;20036;-59
2021/05/11 09:27:34;;;;;;;12.00;8.15;;;12.40;99.90;;;;;;5075062;28;20033;-60
2021/05/11 09:32:40;;;;;;;13.95;9.02;;;12.50;99.90;;;;;;5080529;28;20562;-59
2021/05/11 09:54:34;;;;;;;20.00;10.95;;;12.70;99.90;;;;;;5089825;28;21076;-57
2021/05/11 09:57:11;;;;;;;18.08;11.10;;;12.70;99.90;;;;;;5080910;28;20036;-58
2021/05/11 10:27:09;;;;;;;12.05;7.80;;;12.90;99.90;;;;;;5085028;28;20181;-60
2021/05/11 10:47:03;;;;;;;7.50;5.97;;;13.70;99.90;;;;;;5066625;28;20044;-66
2021/05/11 10:49:38;;;;;;;8.65;5.22;;;13.70;99.90;;;;;;5045962;28;20112;-68
2021/05/11 10:52:09;;;;;;;5.15;4.05;;;13.80;99.90;;;;;;5043680;28;20040;-68
2021/05/11 10:54:37;;;;;;;4.68;3.63;;;13.80;99.90;;;;;;5049587;28;20033;-67
2021/05/11 10:57:31;;;;;;;4.35;3.72;;;13.90;99.90;;;;;;5049879;28;20079;-69
2021/05/11 11:00:12;;;;;;;3.38;3.05;;;14.00;99.90;;;;;;5074768;28;20567;-67
2021/05/11 11:02:43;;;;;;;3.10;2.80;;;14.30;99.90;;;;;;5045412;28;20052;-68
2021/05/11 11:05:11;;;;;;;4.43;3.03;;;14.40;99.90;;;;;;5050339;28;20032;-79
2021/05/11 11:07:42;;;;;;;2.33;2.13;;;14.50;99.90;;;;;;5049843;28;20125;-65
2021/05/11 11:10:10;;;;;;;3.08;2.35;;;14.70;99.90;;;;;;5050597;28;20044;-67
2021/05/11 11:12:41;;;;;;;3.67;2.35;;;14.60;99.90;;;;;;5050252;28;20373;-67
2021/05/11 11:15:16;;;;;;;2.50;1.90;;;14.50;99.90;;;;;;5049848;28;20037;-65
2021/05/11 11:17:44;;;;;;;2.83;2.30;;;14.40;99.90;;;;;;5048581;28;20051;-67
2021/05/11 11:20:12;;;;;;;2.30;1.73;;;14.40;99.90;;;;;;5049668;28;20044;-66
2021/05/11 11:25:40;;;;;;;2.55;1.90;;;14.00;99.90;;;;;;5067261;28;20040;-64
2021/05/11 11:28:06;;;;;;;;;;;14.10;99.90;;;;;;5050811;28;20036;-68
2021/05/11 11:30:32;;;;;;;11.63;8.63;;;14.30;99.90;;;;;;5048361;28;19963;-69
2021/05/11 11:33:01;;;;;;;;;;;14.40;99.90;;;;;;5046020;28;20048;-66
2021/05/11 11:35:31;;;;;;;4.07;2.95;;;14.20;99.90;;;;;;5040690;28;19966;-66
2021/05/11 11:37:57;;;;;;;3.67;2.25;;;14.30;99.90;;;;;;5048699;28;20525;-66
2021/05/11 11:40:23;;;;;;;;;;;14.40;99.90;;;;;;5049345;28;20043;-68
2021/05/11 11:42:49;;;;;;;2.28;2.00;;;14.50;99.90;;;;;;5066895;28;19958;-68
2021/05/11 11:45:24;;;;;;;2.40;1.90;;;14.50;99.90;;;;;;5045210;28;20028;-68
2021/05/11 11:48:04;;;;;;;2.50;2.28;;;14.60;99.90;;;;;;5037721;28;20090;-68
2021/05/11 11:50:36;;;;;;;2.17;1.98;;;14.60;99.90;;;;;;5045992;28;20040;-68
2021/05/11 11:53:12;;;;;;;2.15;1.90;;;14.50;99.90;;;;;;5043018;28;20036;-66
2021/05/11 11:58:23;;;;;;;2.90;2.28;;;14.50;99.90;;;;;;5066542;28;20136;-69
2021/05/11 12:00:49;;;;;;;3.35;2.30;;;14.50;99.90;;;;;;5055663;28;20047;-70
2021/05/11 12:03:17;;;;;;;;;;;14.40;99.90;;;;;;5067315;28;20044;-66
2021/05/11 12:05:53;;;;;;;2.63;1.75;;;14.30;99.90;;;;;;5048603;28;20054;-67
2021/05/11 12:08:20;;;;;;;;;;;14.20;99.90;;;;;;5049043;28;20033;-68
2021/05/11 12:10:48;;;;;;;;;;;14.20;99.90;;;;;;5046607;28;19916;-69
2021/05/11 12:13:20;;;;;;;3.65;1.90;;;14.20;99.90;;;;;;5045464;28;19917;-70
2021/05/11 12:16:11;;;;;;;2.70;2.03;;;14.20;99.90;;;;;;5050070;28;20542;-67
2021/05/11 12:21:50;;;;;;;2.17;1.77;;;14.20;99.90;;;;;;5070189;28;20044;-67
2021/05/11 12:24:18;;;;;;;2.42;1.98;;;14.20;99.90;;;;;;5037867;28;20057;-70
2021/05/11 12:26:45;;;;;;;4.55;2.45;;;14.20;99.90;;;;;;5069391;28;20079;-69
2021/05/11 12:29:14;;;;;;;3.10;2.42;;;14.20;99.90;;;;;;5071448;28;20033;-67
2021/05/11 12:31:44;;;;;;;2.90;1.95;;;14.30;99.90;;;;;;5069803;28;20124;-69
2021/05/11 12:34:12;;;;;;;3.03;2.13;;;14.30;99.90;;;;;;5081432;28;20033;-68
2021/05/11 12:36:44;;;;;;;2.78;2.40;;;14.30;99.90;;;;;;5052628;28;20044;-69
2021/05/11 12:39:17;;;;;;;3.38;2.42;;;14.40;99.90;;;;;;5051978;28;20093;-70
2021/05/11 12:41:44;;;;;;;2.33;2.13;;;14.30;99.90;;;;;;5052207;28;20036;-69
2021/05/11 12:44:27;;;;;;;3.67;2.60;;;14.30;99.90;;;;;;5052495;28;20477;-67
2021/05/11 12:47:03;;;;;;;2.65;2.33;;;14.20;99.90;;;;;;5030731;28;20051;-68
2021/05/11 12:49:29;;;;;;;2.90;2.10;;;14.20;99.90;;;;;;5049131;28;20091;-66
2021/05/11 12:51:56;;;;;;;2.85;2.10;;;14.10;99.90;;;;;;5062381;28;20286;-68
2021/05/11 12:54:30;;;;;;;2.97;1.95;;;14.20;99.90;;;;;;5047662;28;20044;-68
2021/05/11 13:02:23;;;;;;;2.35;1.95;;;14.20;99.90;;;;;;5068861;28;20528;-68
2021/05/11 13:09:22;;;;;;;3.20;2.20;;;14.10;99.90;;;;;;5068165;28;20550;-67
2021/05/11 13:32:24;;;;;;;2.92;2.60;;;14.30;99.90;;;;;;5063170;28;20577;-69
2021/05/11 13:34:50;;;;;;;2.35;2.08;;;14.30;99.90;;;;;;5049864;28;20072;-67
2021/05/11 13:37:17;;;;;;;;;;;14.30;99.90;;;;;;5050898;28;20086;-67
2021/05/11 13:39:43;;;;;;;2.90;2.47;;;14.30;99.90;;;;;;5050854;28;19916;-69
2021/05/11 13:42:08;;;;;;;;;;;14.30;99.90;;;;;;5051919;28;20037;-67
2021/05/11 13:44:34;;;;;;;4.53;2.90;;;14.40;99.90;;;;;;5048821;28;19917;-66
2021/05/11 13:47:00;;;;;;;;;;;14.30;99.90;;;;;;5060007;28;20113;-69
2021/05/11 13:49:26;;;;;;;2.88;2.58;;;14.30;99.90;;;;;;5048031;28;19923;-68
2021/05/11 13:51:53;;;;;;;3.47;2.67;;;14.40;99.90;;;;;;5052146;28;20045;-69
2021/05/11 13:54:19;;;;;;;4.88;3.22;;;14.40;99.90;;;;;;5050995;28;20036;-68
2021/05/11 14:04:43;;;;;;;3.53;2.90;;;14.40;99.90;;;;;;5067617;28;20135;-66
2021/05/11 14:07:08;;;;;;;;;;;14.40;99.90;;;;;;5060388;28;20048;-70
2021/05/11 14:09:34;;;;;;;3.33;2.78;;;14.30;99.90;;;;;;5056964;28;20095;-71
2021/05/11 14:12:00;;;;;;;;;;;14.40;99.90;;;;;;5057391;28;20088;-69
2021/05/11 14:14:26;;;;;;;5.85;2.67;;;14.30;99.90;;;;;;5052146;28;20533;-69
2021/05/11 14:16:52;;;;;;;;;;;14.40;99.90;;;;;;5049650;28;20047;-67
2021/05/11 14:19:18;;;;;;;5.72;2.40;;;14.40;99.90;;;;;;5050320;28;19917;-67
2021/05/11 14:21:45;;;;;;;3.13;2.22;;;14.40;99.90;;;;;;5050536;28;20483;-68
2021/05/11 14:24:11;;;;;;;3.50;3.03;;;14.40;99.90;;;;;;5067170;28;20044;-67
2021/05/11 14:26:38;;;;;;;;;;;14.40;99.90;;;;;;5050168;28;20048;-67
2021/05/11 14:29:05;;;;;;;2.03;1.70;;;14.40;99.90;;;;;;5047462;28;20289;-70
2021/05/11 14:31:32;;;;;;;3.33;2.05;;;14.30;99.90;;;;;;5049868;28;20032;-72
2021/05/11 14:33:58;;;;;;;2.30;1.70;;;14.40;99.90;;;;;;5049190;28;20536;-69
2021/05/11 14:36:24;;;;;;;5.75;1.60;;;14.30;99.90;;;;;;5049473;28;20110;-67
2021/05/11 14:38:49;;;;;;;;;;;14.20;99.90;;;;;;5050615;28;20080;-70
2021/05/11 14:41:17;;;;;;;2.22;1.70;;;14.10;99.90;;;;;;5068488;28;19924;-76
2021/05/11 14:43:43;;;;;;;3.25;2.88;;;14.10;99.90;;;;;;5046700;28;20024;-75
2021/05/11 14:46:10;;;;;;;5.22;2.58;;;14.20;99.90;;;;;;5049723;28;20044;-73
2021/05/11 14:48:36;;;;;;;3.63;1.80;;;14.20;99.90;;;;;;5049981;28;20119;-72
2021/05/11 14:51:03;;;;;;;;;;;14.20;99.90;;;;;;5050543;28;20507;-69
2021/05/11 14:53:30;;;;;;;;;;;14.10;99.90;;;;;;5050192;28;19916;-66
2021/05/11 14:55:57;;;;;;;5.57;2.88;;;14.10;99.90;;;;;;5047440;28;19916;-67
2021/05/11 14:58:25;;;;;;;4.20;3.22;;;14.20;99.90;;;;;;5055396;28;20044;-71
2021/05/11 15:00:52;;;;;;;5.60;3.35;;;14.20;99.90;;;;;;5044785;28;20040;-70
2021/05/11 15:03:19;;;;;;;2.50;1.92;;;14.30;99.90;;;;;;5068514;28;20039;-70
2021/05/11 15:05:46;;;;;;;5.90;2.75;;;14.30;99.90;;;;;;5068716;28;20047;-70
2021/05/11 15:08:12;;;;;;;;;;;14.40;99.90;;;;;;5051877;28;20028;-68
2021/05/11 15:10:38;;;;;;;4.53;2.90;;;14.50;99.90;;;;;;5050287;28;19916;-69
2021/05/11 15:13:05;;;;;;;3.10;2.75;;;14.40;99.90;;;;;;5051493;28;20039;-67
2021/05/11 15:15:34;;;;;;;4.70;2.78;;;14.50;99.90;;;;;;5059764;28;20040;-67
2021/05/11 15:18:04;;;;;;;4.15;3.40;;;14.50;99.90;;;;;;5050991;28;20467;-70
2021/05/11 15:20:32;;;;;;;4.28;3.53;;;14.60;99.90;;;;;;5050442;28;20128;-69
2021/05/11 15:22:58;;;;;;;3.60;2.92;;;14.60;99.90;;;;;;5049794;28;20053;-70
2021/05/11 15:25:26;;;;;;;;;;;14.70;99.90;;;;;;5048823;28;20402;-70
2021/05/11 15:27:54;;;;;;;3.80;2.78;;;14.70;99.90;;;;;;5067754;28;19920;-70
2021/05/11 15:30:22;;;;;;;22.75;18.10;;;14.80;99.90;;;;;;5059990;28;20043;-71
2021/05/11 15:32:56;;;;;;;5.35;3.83;;;14.80;99.90;;;;;;5067530;28;20094;-67
2021/05/11 15:35:34;;;;;;;6.85;3.35;;;14.70;99.90;;;;;;5051449;28;20040;-70
2021/05/11 15:38:01;;;;;;;4.03;3.10;;;14.60;99.90;;;;;;5028936;28;20041;-71
2021/05/11 15:40:38;;;;;;;5.72;3.30;;;14.70;99.90;;;;;;5029612;28;20736;-74
2021/05/11 15:43:05;;;;;;;3.72;3.13;;;14.70;99.90;;;;;;5047779;28;20540;-68
2021/05/11 15:45:32;;;;;;;9.38;3.42;;;14.70;99.90;;;;;;5037702;28;20037;-69
2021/05/11 15:48:02;;;;;;;4.35;3.65;;;14.70;99.90;;;;;;5049453;28;20037;-67
2021/05/11 15:50:30;;;;;;;3.13;2.80;;;14.70;99.90;;;;;;5051751;28;20047;-70
2021/05/11 15:53:02;;;;;;;5.25;3.45;;;14.60;99.90;;;;;;5050622;28;20033;-69
2021/05/11 15:55:30;;;;;;;4.13;3.35;;;14.50;99.90;;;;;;5046850;28;20128;-71
2021/05/11 15:57:56;;;;;;;5.32;3.95;;;14.50;99.90;;;;;;5058681;28;20567;-68
2021/05/11 16:00:22;;;;;;;5.50;4.10;;;14.50;99.90;;;;;;5056723;28;20047;-69
2021/05/11 16:02:48;;;;;;;;;;;14.50;99.90;;;;;;5050768;28;20131;-67
2021/05/11 16:05:17;;;;;;;5.53;3.65;;;14.40;99.90;;;;;;5052420;28;19948;-67
2021/05/11 16:07:43;;;;;;;5.50;4.00;;;14.40;99.90;;;;;;5062363;28;20037;-66
2021/05/11 16:10:09;;;;;;;;;;;14.40;99.90;;;;;;5048406;28;20533;-68
2021/05/11 16:12:36;;;;;;;5.93;4.50;;;14.40;99.90;;;;;;5046055;28;19921;-69
2021/05/11 16:15:18;;;;;;;5.13;4.05;;;14.40;99.90;;;;;;5071003;28;20192;-68
2021/05/11 16:17:45;;;;;;;6.47;4.70;;;14.40;99.90;;;;;;5053121;28;20533;-69
2021/05/11 16:20:12;;;;;;;12.07;8.13;;;14.60;99.90;;;;;;5070857;28;20044;-69
2021/05/11 16:22:40;;;;;;;8.57;5.40;;;14.50;99.90;;;;;;5063819;28;20140;-69
2021/05/11 16:25:07;;;;;;;4.85;4.18;;;14.60;99.90;;;;;;5054143;28;20045;-70
2021/05/11 16:27:33;;;;;;;7.50;4.45;;;14.60;99.90;;;;;;5057865;28;20037;-68
2021/05/11 16:29:59;;;;;;;;;;;14.70;99.90;;;;;;5069632;28;20051;-68
2021/05/11 16:32:25;;;;;;;6.75;4.75;;;14.80;99.90;;;;;;5069266;28;19991;-68
2021/05/11 16:34:51;;;;;;;5.57;4.55;;;14.80;99.90;;;;;;5055725;28;20037;-70
2021/05/11 16:37:16;;;;;;;;;;;14.80;99.90;;;;;;5049391;28;20052;-68
2021/05/11 16:39:43;;;;;;;5.88;4.57;;;14.80;99.90;;;;;;5048846;28;19963;-69
2021/05/11 16:42:09;;;;;;;6.18;4.90;;;14.80;99.90;;;;;;5049397;28;20107;-68
2021/05/11 16:44:38;;;;;;;5.53;4.53;;;14.90;99.90;;;;;;5049202;28;20033;-69
2021/05/11 16:47:04;;;;;;;7.30;5.53;;;14.80;99.90;;;;;;5060011;28;20129;-68
2021/05/11 16:49:30;;;;;;;5.80;4.85;;;14.70;99.90;;;;;;5051662;28;20048;-69
2021/05/11 16:51:57;;;;;;;;;;;14.70;99.90;;;;;;5062070;28;20039;-66
2021/05/11 16:54:22;;;;;;;5.93;4.68;;;14.70;99.90;;;;;;5051159;28;19920;-67
2021/05/11 16:56:49;;;;;;;;;;;14.70;99.90;;;;;;5046371;28;20036;-69
2021/05/11 16:59:15;;;;;;;6.15;4.18;;;14.60;99.90;;;;;;5051462;28;19967;-68
2021/05/11 17:01:41;;;;;;;;;;;14.60;99.90;;;;;;5047937;28;20041;-67
2021/05/11 17:04:07;;;;;;;5.30;4.07;;;14.70;99.90;;;;;;5048369;28;19987;-68
2021/05/11 17:06:34;;;;;;;;;;;14.70;99.90;;;;;;5063628;28;20564;-70
2021/05/11 17:09:01;;;;;;;5.20;3.80;;;14.70;99.90;;;;;;5060398;28;20003;-70
2021/05/11 17:11:28;;;;;;;4.35;3.88;;;14.70;99.90;;;;;;5050718;28;20044;-69
2021/05/11 17:13:56;;;;;;;4.88;3.60;;;14.70;99.90;;;;;;5049088;28;20036;-74
2021/05/11 17:16:22;;;;;;;5.90;4.28;;;14.80;99.90;;;;;;5048835;28;20047;-68
2021/05/11 17:18:47;;;;;;;;;;;14.70;99.90;;;;;;5051128;28;20044;-68
2021/05/11 17:21:13;;;;;;;5.63;4.03;;;14.70;99.90;;;;;;5049926;28;19916;-69